createdAt,value
2019-05-29T00:01:12.180Z,100023.27
2019-05-29T00:04:12.418Z,100034.98
2019-05-29T00:07:16.193Z,100028.59
2019-05-29T00:10:20.494Z,100036.67
2019-05-29T00:13:24.083Z,100033.95
2019-05-29T00:16:27.743Z,100037.34
2019-05-29T00:19:31.356Z,100043.45
2019-05-29T00:22:35.268Z,100044.54
2019-05-29T00:25:38.872Z,100048.98
2019-05-29T00:28:43.974Z,100054.73
2019-05-29T00:31:47.549Z,100064.84
2019-05-29T00:34:51.096Z,100070.11
2019-05-29T00:37:54.827Z,100074.29
2019-05-29T00:40:58.515Z,100074.29
2019-05-29T00:44:02.055Z,100079.12
2019-05-29T00:47:05.676Z,100080.46
2019-05-29T00:50:10.044Z,100089.06
2019-05-29T00:53:14.328Z,100082.60
2019-05-29T00:56:18.815Z,100081.32
2019-05-29T00:59:22.496Z,100086.30
2019-05-29T01:02:26.107Z,100085.74
2019-05-29T01:05:29.721Z,100091.40
2019-05-29T01:08:33.348Z,100093.39
2019-05-29T01:11:36.941Z,100098.64
2019-05-29T01:14:49.621Z,100100.41
2019-05-29T01:17:45.884Z,100110.19
2019-05-29T01:20:49.463Z,100111.25
2019-05-29T01:23:54.861Z,100111.13
2019-05-29T01:26:58.426Z,100119.31
2019-05-29T01:30:02.034Z,100125.39
2019-05-29T01:33:05.576Z,100128.78
2019-05-29T01:36:09.252Z,100133.58
2019-05-29T01:39:12.802Z,100144.81
2019-05-29T01:42:17.270Z,100137.55
2019-05-29T01:45:21.510Z,100138.80
2019-05-29T01:48:25.291Z,100147.09
2019-05-29T01:51:28.828Z,100157.68
2019-05-29T01:54:32.482Z,100160.97
2019-05-29T01:57:36.099Z,100168.00
2019-05-29T02:00:39.760Z,100169.87
2019-05-29T02:03:43.438Z,100175.56
2019-05-29T02:06:46.967Z,100177.13
2019-05-29T02:09:50.614Z,100177.88
2019-05-29T02:12:54.157Z,100182.38
2019-05-29T02:15:57.783Z,100185.61
2019-05-29T02:19:01.367Z,100178.91
2019-05-29T02:22:06.629Z,100188.38
2019-05-29T02:25:15.963Z,100187.84
2019-05-29T02:28:18.924Z,100194.45
2019-05-29T02:31:24.707Z,100200.53
2019-05-29T02:34:29.899Z,100204.62
2019-05-29T02:37:33.369Z,100207.77
2019-05-29T02:40:36.987Z,100215.33
2019-05-29T02:43:40.595Z,100216.27
2019-05-29T02:46:44.210Z,100219.00
2019-05-29T02:49:47.844Z,100226.86
2019-05-29T02:52:51.565Z,100229.70
2019-05-29T02:55:55.145Z,100234.70
2019-05-29T02:58:58.681Z,100239.92
2019-05-29T03:02:02.270Z,100253.80
2019-05-29T03:05:08.989Z,100255.44
2019-05-29T03:08:12.771Z,100257.84
2019-05-29T03:11:16.402Z,100261.30
2019-05-29T03:14:19.942Z,100263.28
2019-05-29T03:17:23.794Z,100275.53
2019-05-29T03:20:30.345Z,100277.08
2019-05-29T03:23:36.210Z,100284.30
2019-05-29T03:26:39.322Z,100280.47
2019-05-29T03:29:42.895Z,100296.80
2019-05-29T03:32:48.742Z,100303.89
2019-05-29T03:35:51.813Z,100309.81
2019-05-29T03:38:55.383Z,100310.70
2019-05-29T03:41:58.980Z,100321.45
2019-05-29T03:45:02.607Z,100332.29
2019-05-29T03:48:06.396Z,100334.25
2019-05-29T03:51:09.970Z,100336.58
2019-05-29T03:54:13.574Z,100338.80
2019-05-29T03:57:17.220Z,100344.25
2019-05-29T04:00:21.497Z,100352.20
2019-05-29T04:03:26.769Z,100361.34
2019-05-29T04:06:31.213Z,100376.80
2019-05-29T04:09:35.444Z,100377.95
2019-05-29T04:12:39.959Z,100381.45
2019-05-29T04:15:44.982Z,100388.03
2019-05-29T04:18:52.934Z,100393.28
2019-05-29T04:21:59.574Z,100401.12
2019-05-29T04:25:06.017Z,100412.56
2019-05-29T04:28:09.734Z,100412.80
2019-05-29T04:31:25.830Z,100420.81
2019-05-29T04:34:30.188Z,100430.48
2019-05-29T04:37:36.773Z,100431.81
2019-05-29T04:40:40.457Z,100439.09
2019-05-29T04:43:43.997Z,100438.47
2019-05-29T04:46:47.584Z,100447.71
2019-05-29T04:49:51.221Z,100450.53
2019-05-29T04:52:54.875Z,100466.47
2019-05-29T04:55:58.528Z,100476.02
2019-05-29T04:59:02.103Z,100475.58
2019-05-29T05:02:05.771Z,100475.62
2019-05-29T05:05:10.196Z,100477.71
2019-05-29T05:08:13.798Z,100488.73
2019-05-29T05:11:17.717Z,100492.98
2019-05-29T05:14:21.372Z,100498.67
2019-05-29T05:17:26.508Z,100504.95
2019-05-29T05:20:30.323Z,100513.27
2019-05-29T05:23:34.127Z,100525.36
2019-05-29T05:26:38.406Z,100532.66
2019-05-29T05:29:42.317Z,100537.47
2019-05-29T05:32:48.951Z,100545.41
2019-05-29T05:35:52.518Z,100542.16
2019-05-29T05:38:57.082Z,100551.55
2019-05-29T05:42:00.821Z,100554.87
2019-05-29T05:45:08.387Z,100555.93
2019-05-29T05:48:14.299Z,100567.08
2019-05-29T05:51:17.915Z,100569.65
2019-05-29T05:54:21.486Z,100571.31
2019-05-29T05:57:25.087Z,100576.87
2019-05-29T06:00:31.877Z,100574.70
2019-05-29T06:03:36.000Z,100583.12
2019-05-29T06:06:40.252Z,100584.86
2019-05-29T06:09:44.009Z,100589.52
2019-05-29T06:12:47.587Z,100598.66
2019-05-29T06:15:51.173Z,100601.16
2019-05-29T06:18:54.907Z,100598.27
2019-05-29T06:21:58.518Z,100604.30
2019-05-29T06:25:02.139Z,100609.25
2019-05-29T06:28:05.818Z,100613.85
2019-05-29T06:31:10.613Z,100617.02
2019-05-29T06:34:14.184Z,100621.47
2019-05-29T06:37:17.730Z,100622.31
2019-05-29T06:40:40.193Z,100627.83
2019-05-29T06:43:44.381Z,100626.31
2019-05-29T06:46:48.390Z,100624.48
2019-05-29T06:49:51.944Z,100635.66
2019-05-29T06:52:55.574Z,100636.05
2019-05-29T06:56:01.120Z,100647.22
2019-05-29T06:59:05.141Z,100638.45
2019-05-29T07:02:08.926Z,100652.58
2019-05-29T07:05:12.581Z,100648.69
2019-05-29T07:08:24.145Z,100656.12
2019-05-29T07:11:21.960Z,100658.89
2019-05-29T07:14:25.594Z,100670.45
2019-05-29T07:17:29.168Z,100673.32
2019-05-29T07:20:33.255Z,100674.27
2019-05-29T07:23:36.891Z,100679.45
2019-05-29T07:26:41.046Z,100681.65
2019-05-29T07:29:45.224Z,100690.05
2019-05-29T07:32:56.707Z,100688.31
2019-05-29T07:35:54.280Z,100683.47
2019-05-29T07:39:03.581Z,100691.93
2019-05-29T07:42:03.475Z,100692.32
2019-05-29T07:45:11.314Z,100705.37
2019-05-29T07:48:14.966Z,100704.59
2019-05-29T07:51:18.610Z,100709.78
2019-05-29T07:54:22.178Z,100713.32
2019-05-29T07:57:25.836Z,100712.91
2019-05-29T08:00:35.742Z,100708.66
2019-05-29T08:03:39.106Z,100710.81
2019-05-29T08:06:50.527Z,100704.97
2019-05-29T08:09:48.298Z,100709.05
2019-05-29T08:12:55.511Z,100712.61
2019-05-29T08:16:02.893Z,100720.38
2019-05-29T08:19:07.892Z,100721.90
2019-05-29T08:22:09.898Z,100726.13
2019-05-29T08:25:14.463Z,100722.13
2019-05-29T08:28:18.361Z,100719.73
2019-05-29T08:31:22.019Z,100730.92
2019-05-29T08:34:25.684Z,100721.72
2019-05-29T08:37:29.390Z,100729.13
2019-05-29T08:40:33.046Z,100723.30
2019-05-29T08:43:36.808Z,100722.47
2019-05-29T08:46:41.624Z,100727.71
2019-05-29T08:49:50.620Z,100729.39
2019-05-29T08:52:52.500Z,100728.13
2019-05-29T08:55:58.091Z,100736.73
2019-05-29T08:59:01.884Z,100743.70
2019-05-29T09:02:05.562Z,100743.67
2019-05-29T09:05:10.020Z,100748.67
2019-05-29T09:08:13.686Z,100754.40
2019-05-29T09:11:17.467Z,100754.12
2019-05-29T09:14:21.085Z,100756.63
2019-05-29T09:17:24.763Z,100764.55
2019-05-29T09:20:50.173Z,100758.05
2019-05-29T09:23:34.298Z,100757.22
2019-05-29T09:26:38.091Z,100761.09
2019-05-29T09:29:41.711Z,100756.71
2019-05-29T09:32:50.991Z,100763.95
2019-05-29T09:35:50.740Z,100759.80
2019-05-29T09:38:54.740Z,100769.85
2019-05-29T09:41:58.434Z,100764.16
2019-05-29T09:45:02.069Z,100764.73
2019-05-29T09:48:06.276Z,100762.84
2019-05-29T09:51:20.750Z,100774.76
2019-05-29T09:54:15.433Z,100777.70
2019-05-29T09:57:19.094Z,100786.37
2019-05-29T10:00:23.453Z,100784.03
2019-05-29T10:03:27.238Z,100778.09
2019-05-29T10:06:30.988Z,100778.02
2019-05-29T10:09:34.693Z,100778.64
2019-05-29T10:12:38.613Z,100778.78
2019-05-29T10:15:44.404Z,100773.69
2019-05-29T10:18:47.763Z,100772.69
2019-05-29T10:21:51.447Z,100780.58
2019-05-29T10:24:56.271Z,100784.58
2019-05-29T10:28:00.370Z,100796.43
2019-05-29T10:31:06.135Z,100790.96
2019-05-29T10:34:09.665Z,100784.36
2019-05-29T10:37:13.331Z,100786.83
2019-05-29T10:40:17.429Z,100792.59
2019-05-29T10:43:33.660Z,100788.16
2019-05-29T10:46:26.702Z,100803.42
2019-05-29T10:49:30.346Z,100789.52
2019-05-29T10:52:34.018Z,100787.44
2019-05-29T10:55:37.683Z,100796.74
2019-05-29T10:58:49.720Z,100810.73
2019-05-29T11:01:47.129Z,100795.71
2019-05-29T11:04:54.963Z,100795.94
2019-05-29T11:07:56.234Z,100799.72
2019-05-29T11:10:59.978Z,100799.20
2019-05-29T11:14:03.812Z,100800.53
2019-05-29T11:17:07.529Z,100786.07
2019-05-29T11:20:12.905Z,100787.42
2019-05-29T11:23:16.570Z,100798.13
2019-05-29T11:26:20.504Z,100795.95
2019-05-29T11:29:24.180Z,100788.52
2019-05-29T11:32:27.937Z,100782.94
2019-05-29T11:35:31.631Z,100777.38
2019-05-29T11:38:35.302Z,100775.06
2019-05-29T11:41:38.999Z,100779.33
2019-05-29T11:44:42.733Z,100769.33
2019-05-29T11:47:46.477Z,100773.36
2019-05-29T11:50:52.106Z,100779.42
2019-05-29T11:53:55.879Z,100777.30
2019-05-29T11:56:59.591Z,100779.61
2019-05-29T12:00:17.126Z,100787.42
2019-05-29T12:03:10.520Z,100787.47
2019-05-29T12:06:16.765Z,100786.05
2019-05-29T12:09:32.215Z,100786.08
2019-05-29T12:12:26.008Z,100783.52
2019-05-29T12:15:29.764Z,100793.98
2019-05-29T12:18:33.417Z,100788.89
2019-05-29T12:21:37.133Z,100797.91
2019-05-29T12:24:40.816Z,100795.21
2019-05-29T12:27:44.439Z,100786.82
2019-05-29T12:30:48.181Z,100784.62
2019-05-29T12:33:52.892Z,100789.59
2019-05-29T12:36:57.341Z,100792.20
2019-05-29T12:40:01.832Z,100785.05
2019-05-29T12:43:05.758Z,100781.38
2019-05-29T12:46:09.600Z,100785.27
2019-05-29T12:49:13.236Z,100780.14
2019-05-29T12:52:16.962Z,100787.27
2019-05-29T12:55:20.746Z,100788.48
2019-05-29T12:58:24.429Z,100787.44
2019-05-29T13:01:28.066Z,100788.77
2019-05-29T13:04:31.944Z,100787.97
2019-05-29T13:07:35.752Z,100779.87
2019-05-29T13:10:39.384Z,100772.88
2019-05-29T13:13:43.137Z,100779.36
2019-05-29T13:16:46.911Z,100790.71
2019-05-29T13:19:50.571Z,100790.07
2019-05-29T13:22:55.489Z,100780.13
2019-05-29T13:25:59.560Z,100783.38
2019-05-29T13:29:04.190Z,100783.19
2019-05-29T13:32:08.052Z,100791.44
2019-05-29T13:35:12.335Z,100784.33
2019-05-29T13:38:16.159Z,100777.95
2019-05-29T13:41:20.039Z,100771.56
2019-05-29T13:44:23.702Z,100779.06
2019-05-29T13:47:27.417Z,100782.97
2019-05-29T13:50:31.148Z,100783.17
2019-05-29T13:53:34.815Z,100782.84
2019-05-29T13:56:38.526Z,100773.13
2019-05-29T13:59:42.316Z,100773.79
2019-05-29T14:02:46.149Z,100773.73
2019-05-29T14:05:50.059Z,100772.13
2019-05-29T14:08:53.859Z,100781.11
2019-05-29T14:11:58.856Z,100774.98
2019-05-29T14:15:02.517Z,100787.65
2019-05-29T14:18:07.045Z,100777.64
2019-05-29T14:21:10.988Z,100785.47
2019-05-29T14:24:28.392Z,100787.00
2019-05-29T14:27:20.000Z,100785.41
2019-05-29T14:30:23.998Z,100789.31
2019-05-29T14:33:27.624Z,100795.23
2019-05-29T14:36:31.388Z,100801.75
2019-05-29T14:39:35.026Z,100804.41
2019-05-29T14:42:38.881Z,100798.84
2019-05-29T14:45:42.557Z,100801.04
2019-05-29T14:48:46.251Z,100794.89
2019-05-29T14:51:51.596Z,100799.06
2019-05-29T14:54:55.297Z,100800.42
2019-05-29T14:57:59.009Z,100804.03
2019-05-29T15:01:03.128Z,100802.69
2019-05-29T15:04:09.597Z,100803.17
2019-05-29T15:07:14.007Z,100810.27
2019-05-29T15:10:26.705Z,100809.20
2019-05-29T15:13:25.114Z,100803.27
2019-05-29T15:16:28.757Z,100808.91
2019-05-29T15:19:32.576Z,100810.83
2019-05-29T15:22:36.437Z,100814.47
2019-05-29T15:25:40.207Z,100821.20
2019-05-29T15:28:43.904Z,100817.53
2019-05-29T15:31:50.740Z,100810.47
2019-05-29T15:36:34.219Z,100809.03
2019-05-29T15:38:31.262Z,100808.06
2019-05-29T15:41:34.995Z,100811.64
2019-05-29T15:44:38.701Z,100813.19
2019-05-29T15:47:42.386Z,100813.28
2019-05-29T15:50:46.084Z,100819.09
2019-05-29T15:53:49.826Z,100821.88
2019-05-29T15:56:53.475Z,100826.38
2019-05-29T15:59:57.180Z,100818.86
2019-05-29T16:03:01.181Z,100819.68
2019-05-29T16:06:05.059Z,100812.39
2019-05-29T16:09:10.081Z,100812.16
2019-05-29T16:12:14.798Z,100812.60
2019-05-29T16:15:19.578Z,100818.77
2019-05-29T16:18:29.204Z,100821.02
2019-05-29T16:21:28.887Z,100820.59
2019-05-29T16:24:32.707Z,100820.27
2019-05-29T16:27:36.423Z,100819.68
2019-05-29T16:30:40.189Z,100838.98
2019-05-29T16:33:44.076Z,100844.11
2019-05-29T16:36:47.794Z,100837.23
2019-05-29T16:39:51.492Z,100838.30
2019-05-29T16:42:55.161Z,100835.86
2019-05-29T16:45:58.812Z,100848.34
2019-05-29T16:49:02.563Z,100846.18
2019-05-29T16:52:09.109Z,100850.79
2019-05-29T16:55:13.363Z,100853.09
2019-05-29T16:58:17.460Z,100855.38
2019-05-29T17:01:21.779Z,100855.08
2019-05-29T17:04:25.501Z,100861.30
2019-05-29T17:07:29.190Z,100860.77
2019-05-29T17:10:37.115Z,100864.27
2019-05-29T17:13:40.825Z,100863.75
2019-05-29T17:16:44.705Z,100867.70
2019-05-29T17:19:48.485Z,100868.03
2019-05-29T17:22:52.191Z,100871.16
2019-05-29T17:26:09.727Z,100877.88
2019-05-29T17:29:01.265Z,100878.76
2019-05-29T17:32:04.999Z,100875.95
2019-05-29T17:35:09.509Z,100882.82
2019-05-29T17:38:13.364Z,100884.44
2019-05-29T17:41:17.336Z,100883.34
2019-05-29T17:44:29.101Z,100882.91
2019-05-29T17:47:37.823Z,100891.42
2019-05-29T17:50:41.441Z,100895.23
2019-05-29T17:53:45.256Z,100892.16
2019-05-29T17:57:07.211Z,100894.56
2019-05-29T18:00:15.882Z,100899.03
2019-05-29T18:03:24.186Z,100903.38
2019-05-29T18:06:27.486Z,100896.16
2019-05-29T18:09:31.421Z,100906.48
2019-05-29T18:12:35.545Z,100909.67
2019-05-29T18:15:39.168Z,100912.60
2019-05-29T18:18:42.985Z,100917.05
2019-05-29T18:21:46.831Z,100918.25
2019-05-29T18:24:50.523Z,100924.18
2019-05-29T18:27:54.456Z,100928.42
2019-05-29T18:34:18.754Z,100931.94
2019-05-29T18:37:22.488Z,100932.53
2019-05-29T18:40:26.448Z,100936.15
2019-05-29T18:43:35.078Z,100941.37
2019-05-29T18:46:38.919Z,100943.20
2019-05-29T18:49:46.797Z,100936.77
2019-05-29T18:52:50.173Z,100948.81
2019-05-29T18:55:53.825Z,100946.53
2019-05-29T18:58:57.442Z,100945.41
2019-05-29T19:02:01.166Z,100946.89
2019-05-29T19:05:06.458Z,100951.03
2019-05-29T19:08:10.193Z,100952.20
2019-05-29T19:11:13.839Z,100964.03
2019-05-29T19:14:17.548Z,100965.30
2019-05-29T19:17:22.028Z,100965.21
2019-05-29T19:20:26.263Z,100967.53
2019-05-29T19:23:30.768Z,100971.45
2019-05-29T19:26:36.754Z,100974.48
2019-05-29T19:29:40.045Z,100981.14
2019-05-29T19:32:43.722Z,100987.24
2019-05-29T19:35:47.345Z,100986.95
2019-05-29T19:38:50.879Z,100992.73
2019-05-29T19:41:54.634Z,100996.01
2019-05-29T19:45:01.037Z,101003.69
2019-05-29T19:48:04.909Z,101005.38
2019-05-29T19:51:08.456Z,101008.12
2019-05-29T19:54:12.133Z,101016.20
2019-05-29T19:57:15.797Z,101016.07
2019-05-29T20:00:21.002Z,101019.53
2019-05-29T20:03:24.671Z,101022.66
2019-05-29T20:06:28.863Z,101017.77
2019-05-29T20:09:33.408Z,101029.81
2019-05-29T20:12:38.107Z,101036.53
2019-05-29T20:15:41.947Z,101034.73
2019-05-29T20:18:46.565Z,101038.17
2019-05-29T20:21:50.272Z,101037.53
2019-05-29T20:24:53.911Z,101038.30
2019-05-29T20:28:05.894Z,101038.91
2019-05-29T20:31:02.782Z,101039.64
2019-05-29T20:34:06.463Z,101040.04
2019-05-29T20:37:10.029Z,101045.91
2019-05-29T20:40:14.494Z,101046.89
2019-05-29T20:43:18.054Z,101053.31
2019-05-29T20:46:21.732Z,101057.84
2019-05-29T20:49:26.799Z,101059.41
2019-05-29T20:52:31.076Z,101056.93
2019-05-29T20:55:35.517Z,101060.45
2019-05-29T20:58:39.869Z,101058.98
2019-05-29T21:01:47.067Z,101061.58
2019-05-29T21:04:48.827Z,101060.02
2019-05-29T21:07:52.467Z,101059.19
2019-05-29T21:10:56.099Z,101068.36
2019-05-29T21:13:59.646Z,101078.86
2019-05-29T21:17:03.390Z,101078.96
2019-05-29T21:20:08.216Z,101073.97
2019-05-29T21:23:12.000Z,101080.02
2019-05-29T21:26:15.974Z,101090.33
2019-05-29T21:29:19.751Z,101089.07
2019-05-29T21:32:23.391Z,101086.44
2019-05-29T21:35:27.281Z,101088.92
2019-05-29T21:38:30.928Z,101084.18
2019-05-29T21:41:34.554Z,101089.52
2019-05-29T21:44:38.655Z,101083.27
2019-05-29T21:47:43.568Z,101095.07
2019-05-29T21:50:47.789Z,101094.63
2019-05-29T21:53:53.426Z,101089.94
2019-05-29T21:56:56.753Z,101092.19
2019-05-29T22:00:00.381Z,101091.70
2019-05-29T22:03:04.857Z,101093.50
2019-05-29T22:06:08.579Z,101099.08
2019-05-29T22:09:14.191Z,101097.26
2019-05-29T22:12:17.943Z,101095.16
2019-05-29T22:15:21.601Z,101098.92
2019-05-29T22:18:25.500Z,101095.13
2019-05-29T22:21:29.047Z,101095.42
2019-05-29T22:24:32.762Z,101099.85
2019-05-29T22:27:37.166Z,101094.16
2019-05-29T22:30:41.017Z,101100.60
2019-05-29T22:33:44.885Z,101102.72
2019-05-29T22:36:48.381Z,101104.64
2019-05-29T22:39:53.514Z,101106.48
2019-05-29T22:42:57.573Z,101111.13
2019-05-29T22:46:01.870Z,101114.75
2019-05-29T22:49:05.717Z,101107.75
2019-05-29T22:52:09.278Z,101116.58
2019-05-29T22:55:14.104Z,101110.75
2019-05-29T22:58:19.223Z,101107.67
2019-05-29T23:01:24.578Z,101116.20
2019-05-29T23:04:28.405Z,101116.04
2019-05-29T23:07:32.106Z,101121.18
2019-05-29T23:10:37.290Z,101114.59
2019-05-29T23:13:41.321Z,101115.77
2019-05-29T23:16:45.001Z,101103.48
2019-05-29T23:19:48.770Z,101107.86
2019-05-29T23:22:52.618Z,101101.02
2019-05-29T23:25:56.552Z,101105.42
2019-05-29T23:29:01.009Z,101105.37
2019-05-29T23:32:04.747Z,101108.53
2019-05-29T23:35:08.849Z,101109.89
2019-05-29T23:38:12.430Z,101102.27
2019-05-29T23:41:15.989Z,101104.23
2019-05-29T23:44:19.622Z,101098.59
2019-05-29T23:47:23.174Z,101099.61
2019-05-29T23:50:26.913Z,101095.16
2019-05-29T23:53:30.726Z,101094.33
2019-05-29T23:56:34.691Z,101093.84
2019-05-29T23:59:39.838Z,101093.76
